Time;durP1;ratioP1;P1;durP2;ratioP2;P2;SDS_P1;SDS_P2;PMS_P1;PMS_P2;Temp;Humidity;BMP_temperature;BMP_pressure;BME280_temperature;BME280_humidity;BME280_pressure;Samples;Min_cycle;Max_cycle;Signal;HPM_P1;HPM_P2
2022/01/15 00:00:20;;;;;;;10.53;6.43;;;;;;;-141.59;100.00;61776.25;4966154;28;20584;-82
2022/01/15 00:02:47;;;;;;;13.47;8.40;;;;;;;-141.59;100.00;61776.25;4965097;28;20212;-82
2022/01/15 00:05:14;;;;;;;11.73;7.67;;;;;;;-141.59;100.00;61776.25;4950726;28;20269;-81
2022/01/15 00:07:42;;;;;;;12.30;7.30;;;;;;;-141.59;100.00;61776.25;4952523;28;20331;-82
2022/01/15 00:10:11;;;;;;;13.17;7.17;;;;;;;-141.59;100.00;61776.25;4966259;28;20256;-82
2022/01/15 00:12:40;;;;;;;11.97;6.67;;;;;;;-141.59;100.00;61776.25;4942638;28;20279;-82
2022/01/15 00:15:11;;;;;;;11.67;7.10;;;;;;;-141.59;100.00;61776.25;4967314;28;20205;-81
2022/01/15 00:17:48;;;;;;;12.73;7.37;;;;;;;-141.59;100.00;61776.25;4948391;28;20264;-82
2022/01/15 00:20:19;;;;;;;12.17;6.90;;;;;;;-141.59;100.00;61776.25;4949949;28;20213;-82
2022/01/15 00:22:47;;;;;;;10.83;7.20;;;;;;;-141.59;100.00;61776.25;4950223;28;20228;-81
2022/01/15 00:25:16;;;;;;;13.50;7.83;;;;;;;-141.59;100.00;61776.25;4963611;28;20216;-82
2022/01/15 00:27:44;;;;;;;13.17;7.30;;;;;;;-141.59;100.00;61776.25;4950295;28;20208;-82
2022/01/15 00:30:12;;;;;;;10.37;7.00;;;;;;;-141.59;100.00;61776.25;4958261;28;20319;-81
2022/01/15 00:32:39;;;;;;;13.50;6.90;;;;;;;-141.59;100.00;61776.25;4948552;28;20283;-82
2022/01/15 00:35:08;;;;;;;12.97;7.23;;;;;;;-141.59;100.00;61776.25;4965623;28;20227;-81
2022/01/15 00:37:35;;;;;;;11.37;7.23;;;;;;;-141.59;100.00;61776.25;4968263;28;20328;-81
2022/01/15 00:40:06;;;;;;;10.70;6.83;;;;;;;-141.59;100.00;61776.25;4950863;28;20207;-81
2022/01/15 00:42:36;;;;;;;11.97;7.13;;;;;;;-141.59;100.00;61776.25;4964598;28;20226;-82
2022/01/15 00:45:04;;;;;;;14.67;7.23;;;;;;;-141.59;100.00;61776.25;4967920;28;20271;-81
2022/01/15 00:47:32;;;;;;;13.80;7.93;;;;;;;-141.59;100.00;61776.25;4948645;28;20212;-82
2022/01/15 00:49:59;;;;;;;15.43;8.63;;;;;;;-141.59;100.00;61776.25;4948439;28;20232;-81
2022/01/15 00:52:26;;;;;;;14.10;8.07;;;;;;;-141.59;100.00;61776.25;4951033;28;20205;-81
2022/01/15 00:54:54;;;;;;;19.10;8.97;;;;;;;-141.59;100.00;61776.25;4943606;28;20207;-81
2022/01/15 00:57:22;;;;;;;15.90;8.27;;;;;;;-141.59;100.00;61776.25;4959735;28;20209;-82
2022/01/15 00:59:51;;;;;;;15.37;9.07;;;;;;;-141.59;100.00;61776.25;4943530;28;20288;-81
2022/01/15 01:02:18;;;;;;;15.13;7.73;;;;;;;-141.59;100.00;61776.25;4941930;28;20201;-82
2022/01/15 01:04:46;;;;;;;18.47;8.37;;;;;;;-141.59;100.00;61776.25;4949430;28;20242;-81
2022/01/15 01:07:13;;;;;;;14.33;8.10;;;;;;;-141.59;100.00;61776.25;4947683;28;20251;-82
2022/01/15 01:09:58;;;;;;;14.07;8.77;;;;;;;-141.59;100.00;61776.25;4956029;28;20234;-82
2022/01/15 01:12:33;;;;;;;16.03;8.43;;;;;;;-141.59;100.00;61776.25;4940842;28;20275;-81
2022/01/15 01:20:45;;;;;;;16.93;8.70;;;;;;;-141.59;100.00;61776.25;4948013;28;20215;-82
2022/01/15 01:23:11;;;;;;;14.40;8.10;;;;;;;-141.59;100.00;61776.25;4954359;28;20260;-81
2022/01/15 01:25:42;;;;;;;14.33;8.73;;;;;;;-141.59;100.00;61776.25;4948395;28;20319;-82
2022/01/15 01:28:13;;;;;;;16.43;9.10;;;;;;;-141.59;100.00;61776.25;4947208;28;20197;-81
2022/01/15 01:30:47;;;;;;;13.97;8.53;;;;;;;-141.59;100.00;61776.25;4952493;28;20236;-82
2022/01/15 01:33:32;;;;;;;14.60;8.80;;;;;;;-141.59;100.00;61776.25;4949174;28;20216;-81
2022/01/15 01:36:17;;;;;;;18.23;9.80;;;;;;;-141.59;100.00;61776.25;4960774;28;20211;-81
2022/01/15 01:38:51;;;;;;;15.63;8.70;;;;;;;-141.59;100.00;61776.25;4949263;28;20219;-81
2022/01/15 01:41:20;;;;;;;16.23;8.20;;;;;;;-141.59;100.00;61776.25;4950214;28;20212;-82
2022/01/15 01:43:53;;;;;;;14.30;8.87;;;;;;;-141.59;100.00;61776.25;4936875;28;20212;-81
2022/01/15 01:46:39;;;;;;;16.47;9.03;;;;;;;-141.59;100.00;61776.25;4947680;28;20208;-82
2022/01/15 01:49:11;;;;;;;17.50;8.73;;;;;;;-141.59;100.00;61776.25;4959249;28;20212;-82
2022/01/15 01:51:39;;;;;;;17.67;9.27;;;;;;;-141.59;100.00;61776.25;4942428;28;20208;-81
2022/01/15 01:54:08;;;;;;;15.67;8.83;;;;;;;-141.59;100.00;61776.25;4951332;28;20201;-81
2022/01/15 01:56:36;;;;;;;16.70;9.43;;;;;;;-141.59;100.00;61776.25;4964583;28;20303;-81
2022/01/15 01:59:05;;;;;;;18.93;9.57;;;;;;;-141.59;100.00;61776.25;4954501;28;20208;-81
2022/01/15 02:01:34;;;;;;;21.60;11.17;;;;;;;-141.59;100.00;61776.25;4964226;28;20261;-82
2022/01/15 02:04:01;;;;;;;24.23;13.17;;;;;;;-141.59;100.00;61776.25;4953304;28;20225;-82
2022/01/15 02:06:28;;;;;;;31.03;14.27;;;;;;;-141.59;100.00;61776.25;4942667;28;20319;-82
2022/01/15 02:08:57;;;;;;;30.40;13.83;;;;;;;-141.59;100.00;61776.25;4940758;28;20292;-81
2022/01/15 02:11:26;;;;;;;31.47;14.57;;;;;;;-141.59;100.00;61776.25;4961767;28;20231;-81
2022/01/15 02:13:53;;;;;;;33.13;15.20;;;;;;;-141.59;100.00;61776.25;4945889;28;20201;-82
2022/01/15 02:16:20;;;;;;;27.93;13.57;;;;;;;-141.59;100.00;61776.25;4944905;28;20209;-81
2022/01/15 02:18:52;;;;;;;31.77;14.20;;;;;;;-141.59;100.00;61776.25;4964297;28;20208;-81
2022/01/15 02:24:06;;;;;;;34.17;14.47;;;;;;;-141.59;100.00;61776.25;4946175;28;20201;-82
2022/01/15 02:26:37;;;;;;;33.03;14.10;;;;;;;-141.59;100.00;61776.25;4948000;28;20209;-82
2022/01/15 02:29:05;;;;;;;34.10;14.87;;;;;;;-141.59;100.00;61776.25;4961443;28;20300;-82
2022/01/15 02:31:32;;;;;;;35.73;14.87;;;;;;;-141.59;100.00;61776.25;4948024;28;20238;-82
2022/01/15 02:34:02;;;;;;;28.70;13.53;;;;;;;-141.59;100.00;61776.25;4933813;28;20231;-82
2022/01/15 02:36:32;;;;;;;35.53;14.90;;;;;;;-141.59;100.00;61776.25;4945951;28;20221;-82
2022/01/15 02:39:00;;;;;;;36.20;16.33;;;;;;;-141.59;100.00;61776.25;4939130;28;20208;-82
2022/01/15 02:41:29;;;;;;;39.80;16.57;;;;;;;-141.59;100.00;61776.25;4949183;28;20220;-82
2022/01/15 02:43:58;;;;;;;36.77;17.03;;;;;;;-141.59;100.00;61776.25;4947337;28;20252;-82
2022/01/15 02:46:36;;;;;;;46.67;17.90;;;;;;;-141.59;100.00;61776.25;4946543;28;20240;-82
2022/01/15 02:49:06;;;;;;;48.50;18.53;;;;;;;-141.59;100.00;61776.25;4960184;28;20215;-82
2022/01/15 02:51:36;;;;;;;42.63;18.47;;;;;;;-141.59;100.00;61776.25;4945808;28;20242;-82
2022/01/15 02:54:05;;;;;;;42.13;18.00;;;;;;;-141.59;100.00;61776.25;4965604;28;20353;-82
2022/01/15 02:56:35;;;;;;;44.57;18.60;;;;;;;-141.59;100.00;61776.25;4965162;28;20244;-82
2022/01/15 02:59:03;;;;;;;46.03;18.10;;;;;;;-141.59;100.00;61776.25;4958041;28;20238;-82
2022/01/15 03:01:32;;;;;;;38.70;17.87;;;;;;;-141.59;100.00;61776.25;4945921;28;20287;-82
2022/01/15 03:03:59;;;;;;;41.70;17.23;;;;;;;-141.59;100.00;61776.25;4956934;28;20200;-82
2022/01/15 03:06:26;;;;;;;38.13;15.40;;;;;;;-141.59;100.00;61776.25;4947406;28;20323;-82
2022/01/15 03:08:55;;;;;;;33.10;15.67;;;;;;;-141.59;100.00;61776.25;4944296;29;20300;-82
2022/01/15 03:11:23;;;;;;;42.57;17.27;;;;;;;-141.59;100.00;61776.25;4934322;28;20256;-82
2022/01/15 03:13:51;;;;;;;36.07;17.00;;;;;;;-141.59;100.00;61776.25;4956161;28;20456;-82
2022/01/15 03:16:20;;;;;;;41.97;15.97;;;;;;;-141.59;100.00;61776.25;4943923;28;20309;-82
2022/01/15 03:18:48;;;;;;;37.60;17.93;;;;;;;-141.59;100.00;61776.25;4948303;28;20277;-82
2022/01/15 03:21:15;;;;;;;36.83;16.63;;;;;;;-141.59;100.00;61776.25;4946429;28;20203;-82
2022/01/15 03:23:43;;;;;;;31.57;15.17;;;;;;;-141.59;100.00;61776.25;4937721;29;20304;-82
2022/01/15 03:26:13;;;;;;;31.50;14.13;;;;;;;-141.59;100.00;61776.25;4958116;28;20217;-82
2022/01/15 03:28:43;;;;;;;37.80;16.37;;;;;;;-141.59;100.00;61776.25;4960891;28;20212;-82
2022/01/15 03:31:10;;;;;;;42.10;17.20;;;;;;;-141.59;100.00;61776.25;4941337;28;20311;-82
2022/01/15 03:33:40;;;;;;;36.27;16.17;;;;;;;-141.59;100.00;61776.25;4942711;29;20245;-82
2022/01/15 03:36:08;;;;;;;41.50;17.93;;;;;;;-141.59;100.00;61776.25;4945960;29;20212;-82
2022/01/15 03:38:37;;;;;;;42.27;17.63;;;;;;;-141.59;100.00;61776.25;4956991;28;20566;-82
2022/01/15 03:41:05;;;;;;;39.10;17.50;;;;;;;-141.59;100.00;61776.25;4936122;28;20214;-82
2022/01/15 03:43:33;;;;;;;42.73;17.77;;;;;;;-141.59;100.00;61776.25;4942797;28;20309;-82
2022/01/15 03:46:00;;;;;;;42.77;18.13;;;;;;;-141.59;100.00;61776.25;4940999;28;20205;-82
2022/01/15 03:48:27;;;;;;;40.57;17.73;;;;;;;-141.59;100.00;61776.25;4942884;29;20256;-82
2022/01/15 03:50:54;;;;;;;41.33;16.77;;;;;;;-141.59;100.00;61776.25;4936286;28;20234;-82
2022/01/15 03:53:23;;;;;;;40.90;17.03;;;;;;;-141.59;100.00;61776.25;4957695;28;20209;-82
2022/01/15 03:55:51;;;;;;;42.93;17.83;;;;;;;-141.59;100.00;61776.25;4945753;29;20301;-82
2022/01/15 03:58:18;;;;;;;40.83;17.40;;;;;;;-141.59;100.00;61776.25;4961872;28;20239;-82
2022/01/15 04:00:47;;;;;;;44.10;17.53;;;;;;;-141.59;100.00;61776.25;4946898;29;20288;-82
2022/01/15 04:03:14;;;;;;;40.60;16.93;;;;;;;-141.59;100.00;61776.25;4964127;28;20201;-82
2022/01/15 04:05:41;;;;;;;41.93;17.80;;;;;;;-141.59;100.00;61776.25;4946414;28;20332;-82
2022/01/15 04:08:08;;;;;;;45.23;18.97;;;;;;;-141.59;100.00;61776.25;4946747;28;20237;-82
2022/01/15 04:10:35;;;;;;;41.90;18.40;;;;;;;-141.59;100.00;61776.25;4946706;28;20257;-82
2022/01/15 04:13:03;;;;;;;42.87;17.90;;;;;;;-141.59;100.00;61776.25;4956659;28;20225;-82
2022/01/15 04:15:30;;;;;;;44.80;19.83;;;;;;;-141.59;100.00;61776.25;4940419;29;20216;-82
2022/01/15 04:17:58;;;;;;;41.33;18.07;;;;;;;-141.59;100.00;61776.25;4949428;29;20201;-82
2022/01/15 04:20:25;;;;;;;46.63;19.50;;;;;;;-141.59;100.00;61776.25;4944407;28;20268;-82
2022/01/15 04:22:54;;;;;;;48.67;19.37;;;;;;;-141.59;100.00;61776.25;4955718;28;20205;-82
2022/01/15 04:25:21;;;;;;;47.43;18.37;;;;;;;-141.59;100.00;61776.25;4957488;28;20297;-82
2022/01/15 04:27:49;;;;;;;49.13;19.33;;;;;;;-141.59;100.00;61776.25;4935342;28;20206;-82
2022/01/15 04:30:17;;;;;;;55.20;19.73;;;;;;;-141.59;100.00;61776.25;4948737;28;20209;-82
2022/01/15 04:32:45;;;;;;;48.37;19.83;;;;;;;-141.59;100.00;61776.25;4945207;28;20240;-82
2022/01/15 04:35:13;;;;;;;50.73;18.43;;;;;;;-141.59;100.00;61776.25;4945186;28;20303;-82
2022/01/15 04:37:44;;;;;;;45.47;17.77;;;;;;;-141.59;100.00;61776.25;4941048;28;20238;-82
2022/01/15 04:40:13;;;;;;;42.90;16.83;;;;;;;-141.59;100.00;61776.25;4944154;28;20205;-82
2022/01/15 04:42:40;;;;;;;41.33;16.00;;;;;;;-141.59;100.00;61776.25;4952660;28;20208;-82
2022/01/15 04:45:07;;;;;;;37.70;16.80;;;;;;;-141.59;100.00;61776.25;4944614;28;20493;-82
2022/01/15 04:47:35;;;;;;;44.07;16.20;;;;;;;-141.59;100.00;61776.25;4954015;28;20217;-82
2022/01/15 04:50:04;;;;;;;43.20;16.80;;;;;;;-141.59;100.00;61776.25;4940215;28;20213;-83
2022/01/15 04:52:34;;;;;;;31.57;14.30;;;;;;;-141.59;100.00;61776.25;4957875;28;20290;-82
2022/01/15 04:55:02;;;;;;;33.17;14.00;;;;;;;-141.59;100.00;61776.25;4944953;28;20231;-82
2022/01/15 04:57:29;;;;;;;32.57;14.23;;;;;;;-141.59;100.00;61776.25;4944428;28;20198;-82
2022/01/15 04:59:56;;;;;;;33.40;14.60;;;;;;;-141.59;100.00;61776.25;4958702;28;20210;-82
2022/01/15 05:02:24;;;;;;;33.03;14.40;;;;;;;-141.59;100.00;61776.25;4945435;28;20228;-82
2022/01/15 05:04:51;;;;;;;33.67;14.80;;;;;;;-141.59;100.00;61776.25;4945836;28;20214;-82
2022/01/15 05:07:18;;;;;;;31.67;13.60;;;;;;;-141.59;100.00;61776.25;4962890;28;20237;-82
2022/01/15 05:09:46;;;;;;;26.10;13.20;;;;;;;-141.59;100.00;61776.25;4965327;28;20208;-82
2022/01/15 05:12:25;;;;;;;26.03;13.03;;;;;;;-141.59;100.00;61776.25;4947157;28;20309;-83
2022/01/15 05:14:52;;;;;;;23.77;11.07;;;;;;;-141.59;100.00;61776.25;4961890;28;20224;-82
2022/01/15 05:17:20;;;;;;;21.20;11.70;;;;;;;-141.59;100.00;61776.25;4944277;28;20218;-82
2022/01/15 05:19:47;;;;;;;23.07;10.83;;;;;;;-141.59;100.00;61776.25;4957588;28;20197;-82
2022/01/15 05:22:14;;;;;;;22.07;11.97;;;;;;;-141.59;100.00;61776.25;4966098;28;20284;-82
2022/01/15 05:24:41;;;;;;;22.93;10.77;;;;;;;-141.59;100.00;61776.25;4947751;28;20198;-82
2022/01/15 05:27:09;;;;;;;22.63;10.97;;;;;;;-141.59;100.00;61776.25;4949506;28;20283;-82
2022/01/15 05:29:36;;;;;;;20.70;11.23;;;;;;;-141.59;100.00;61776.25;4946315;28;20210;-82
2022/01/15 05:32:04;;;;;;;23.53;12.27;;;;;;;-141.59;100.00;61776.25;4946158;28;20283;-82
2022/01/15 05:34:31;;;;;;;27.37;11.83;;;;;;;-141.59;100.00;61776.25;4945352;28;20207;-82
2022/01/15 05:36:58;;;;;;;24.70;12.03;;;;;;;-141.59;100.00;61776.25;4946915;28;20304;-81
2022/01/15 05:39:25;;;;;;;25.67;12.00;;;;;;;-141.59;100.00;61776.25;4964649;28;20212;-82
2022/01/15 05:41:53;;;;;;;26.10;12.40;;;;;;;-141.59;100.00;61776.25;4939471;28;20308;-81
2022/01/15 05:44:21;;;;;;;27.53;12.77;;;;;;;-141.59;100.00;61776.25;4962609;28;20293;-81
2022/01/15 05:46:48;;;;;;;27.67;12.93;;;;;;;-141.59;100.00;61776.25;4948894;28;20283;-81
2022/01/15 05:49:15;;;;;;;23.20;11.43;;;;;;;-141.59;100.00;61776.25;4941304;28;20324;-82
2022/01/15 05:51:42;;;;;;;25.03;11.67;;;;;;;-141.59;100.00;61776.25;4950930;28;20221;-81
2022/01/15 05:54:11;;;;;;;21.53;11.23;;;;;;;-141.59;100.00;61776.25;4946588;28;20307;-81
2022/01/15 05:56:39;;;;;;;24.57;11.80;;;;;;;-141.59;100.00;61776.25;4951617;28;20224;-82
2022/01/15 05:59:07;;;;;;;26.70;11.93;;;;;;;-141.59;100.00;61776.25;4946368;28;20208;-81
2022/01/15 06:01:37;;;;;;;27.83;12.13;;;;;;;-141.59;100.00;61776.25;4945748;28;20287;-81
2022/01/15 06:04:04;;;;;;;26.70;12.50;;;;;;;-141.59;100.00;61776.25;4963698;28;20215;-81
2022/01/15 06:06:32;;;;;;;24.90;12.03;;;;;;;-141.59;100.00;61776.25;4944471;28;20239;-82
2022/01/15 06:08:59;;;;;;;25.17;12.50;;;;;;;-141.59;100.00;61776.25;4949868;28;20328;-82
2022/01/15 06:11:27;;;;;;;26.23;12.33;;;;;;;-141.59;100.00;61776.25;4963380;28;20228;-81
2022/01/15 06:13:54;;;;;;;29.47;13.10;;;;;;;-141.59;100.00;61776.25;4957165;28;20270;-81
2022/01/15 06:16:22;;;;;;;31.83;13.50;;;;;;;-141.59;100.00;61776.25;4963154;28;20215;-81
2022/01/15 06:18:51;;;;;;;27.87;12.70;;;;;;;-141.59;100.00;61776.25;4949305;28;20292;-82
2022/01/15 06:21:18;;;;;;;22.73;11.83;;;;;;;-141.59;100.00;61776.25;4940625;28;20206;-81
2022/01/15 06:23:45;;;;;;;25.40;11.83;;;;;;;-141.59;100.00;61776.25;4948210;28;20243;-81
2022/01/15 06:26:12;;;;;;;26.63;10.87;;;;;;;-141.59;100.00;61776.25;4948691;28;20209;-81
2022/01/15 06:28:39;;;;;;;21.20;11.03;;;;;;;-141.59;100.00;61776.25;4946770;28;20228;-81
2022/01/15 06:31:07;;;;;;;25.77;11.00;;;;;;;-141.59;100.00;61776.25;4945908;28;20245;-81
2022/01/15 06:33:34;;;;;;;24.30;10.83;;;;;;;-141.59;100.00;61776.25;4944615;28;20205;-81
2022/01/15 06:36:02;;;;;;;21.83;10.50;;;;;;;-141.59;100.00;61776.25;4963992;28;20217;-81
2022/01/15 06:38:29;;;;;;;20.37;9.60;;;;;;;-141.59;100.00;61776.25;4947987;28;20245;-81
2022/01/15 06:40:56;;;;;;;22.27;10.37;;;;;;;-141.59;100.00;61776.25;4958648;28;20224;-81
2022/01/15 06:43:23;;;;;;;23.50;11.30;;;;;;;-141.59;100.00;61776.25;4948034;28;20225;-81
2022/01/15 06:45:50;;;;;;;24.47;12.47;;;;;;;-141.59;100.00;61776.25;4962911;28;20226;-81
2022/01/15 06:48:18;;;;;;;25.30;13.00;;;;;;;-141.59;100.00;61776.25;4949915;28;20293;-81
2022/01/15 06:50:45;;;;;;;22.80;10.83;;;;;;;-141.59;100.00;61776.25;4951393;28;20212;-81
2022/01/15 06:53:13;;;;;;;22.23;10.90;;;;;;;-141.59;100.00;61776.25;4947397;28;20215;-81
2022/01/15 06:55:40;;;;;;;25.43;11.77;;;;;;;-141.59;100.00;61776.25;4947559;28;20205;-81
2022/01/15 06:58:08;;;;;;;24.90;11.50;;;;;;;-141.59;100.00;61776.25;4943945;28;20268;-81
2022/01/15 07:00:35;;;;;;;27.00;10.57;;;;;;;-141.59;100.00;61776.25;4956521;28;20209;-81
2022/01/15 07:03:02;;;;;;;23.43;11.03;;;;;;;-141.59;100.00;61776.25;4960585;28;20205;-81
2022/01/15 07:05:29;;;;;;;21.97;10.40;;;;;;;-141.59;100.00;61776.25;4962850;28;20209;-81
2022/01/15 07:07:57;;;;;;;24.67;11.37;;;;;;;-141.59;100.00;61776.25;4946950;28;20294;-81
2022/01/15 07:10:26;;;;;;;24.83;11.13;;;;;;;-141.59;100.00;61776.25;4949524;28;20212;-81
2022/01/15 07:12:53;;;;;;;22.53;11.03;;;;;;;-141.59;100.00;61776.25;4958830;28;20229;-81
2022/01/15 07:15:20;;;;;;;24.07;11.07;;;;;;;-141.59;100.00;61776.25;4947977;28;20205;-81
2022/01/15 07:17:48;;;;;;;22.07;10.50;;;;;;;-141.59;100.00;61776.25;4947931;28;20294;-81
2022/01/15 07:20:17;;;;;;;19.77;10.40;;;;;;;-141.59;100.00;61776.25;4947797;28;20273;-81
2022/01/15 07:22:45;;;;;;;24.10;11.03;;;;;;;-141.59;100.00;61776.25;4960964;28;20276;-81
2022/01/15 07:25:13;;;;;;;21.77;10.03;;;;;;;-141.59;100.00;61776.25;4958141;28;20215;-81
2022/01/15 07:27:42;;;;;;;21.80;11.03;;;;;;;-141.59;100.00;61776.25;4955179;28;20214;-81
2022/01/15 07:30:11;;;;;;;20.47;11.20;;;;;;;-141.59;100.00;61776.25;4941931;28;20300;-82
2022/01/15 07:32:40;;;;;;;21.70;10.03;;;;;;;-141.59;100.00;61776.25;4970374;28;20383;-81
2022/01/15 07:35:08;;;;;;;26.70;11.50;;;;;;;-141.59;100.00;61776.25;4969546;28;20208;-81
2022/01/15 07:37:36;;;;;;;23.53;11.40;;;;;;;-141.59;100.00;61776.25;4947078;28;20228;-81
2022/01/15 07:40:04;;;;;;;30.33;10.57;;;;;;;-141.59;100.00;61776.25;4956386;28;20216;-81
2022/01/15 07:42:35;;;;;;;25.00;10.60;;;;;;;-141.59;100.00;61776.25;4951908;28;20197;-81
2022/01/15 07:45:04;;;;;;;19.77;10.37;;;;;;;-141.59;100.00;61776.25;4951274;28;20309;-81
2022/01/15 07:47:31;;;;;;;26.57;12.20;;;;;;;-141.59;100.00;61776.25;4949471;28;20208;-81
2022/01/15 07:49:59;;;;;;;23.60;11.27;;;;;;;-141.59;100.00;61776.25;4952678;28;20213;-82
2022/01/15 07:52:26;;;;;;;26.77;12.17;;;;;;;-141.59;100.00;61776.25;4953056;28;20227;-82
2022/01/15 07:54:53;;;;;;;20.60;10.60;;;;;;;-141.59;100.00;61776.25;4948338;28;20304;-82
2022/01/15 07:57:20;;;;;;;23.20;10.60;;;;;;;-141.59;100.00;61776.25;4962991;28;20265;-81
2022/01/15 07:59:48;;;;;;;24.10;11.33;;;;;;;-141.59;100.00;61776.25;4951323;28;20270;-81
2022/01/15 08:02:16;;;;;;;21.30;9.73;;;;;;;-141.59;100.00;61776.25;4945276;28;20212;-81
2022/01/15 08:04:43;;;;;;;21.23;10.97;;;;;;;-141.59;100.00;61776.25;4961562;28;20329;-81
2022/01/15 08:07:10;;;;;;;24.40;10.63;;;;;;;-141.59;100.00;61776.25;4947058;28;20234;-82
2022/01/15 08:09:39;;;;;;;22.87;11.67;;;;;;;-141.59;100.00;61776.25;4943083;28;20217;-82
2022/01/15 08:12:07;;;;;;;23.53;10.43;;;;;;;-141.59;100.00;61776.25;4942372;28;20232;-82
2022/01/15 08:14:34;;;;;;;26.70;12.33;;;;;;;-141.59;100.00;61776.25;4955095;28;20215;-82
2022/01/15 08:17:01;;;;;;;21.40;10.83;;;;;;;-141.59;100.00;61776.25;4950538;28;20220;-82
2022/01/15 08:19:29;;;;;;;23.57;11.20;;;;;;;-141.59;100.00;61776.25;4950369;28;20312;-81
2022/01/15 08:21:57;;;;;;;39.43;9.90;;;;;;;-141.59;100.00;61776.25;4942026;28;20347;-82
2022/01/15 08:24:24;;;;;;;34.17;9.93;;;;;;;-141.59;100.00;61776.25;4948669;28;20260;-82
2022/01/15 08:26:52;;;;;;;21.27;10.73;;;;;;;-141.59;100.00;61776.25;4951450;28;20208;-82
2022/01/15 08:29:19;;;;;;;25.87;9.93;;;;;;;-141.59;100.00;61776.25;4948237;28;20206;-82
2022/01/15 08:31:46;;;;;;;21.70;10.07;;;;;;;-141.59;100.00;61776.25;4959303;28;20225;-81
2022/01/15 08:34:13;;;;;;;20.43;9.43;;;;;;;-141.59;100.00;61776.25;4944021;28;20236;-82
2022/01/15 08:36:42;;;;;;;20.87;9.70;;;;;;;-141.59;100.00;61776.25;4953066;28;20301;-82
2022/01/15 08:39:10;;;;;;;22.40;10.70;;;;;;;-141.59;100.00;61776.25;4954433;28;20205;-82
2022/01/15 08:41:37;;;;;;;25.73;11.50;;;;;;;-141.59;100.00;61776.25;4962787;28;20275;-82
2022/01/15 08:44:05;;;;;;;29.37;10.77;;;;;;;-141.59;100.00;61776.25;4962289;28;20211;-82
2022/01/15 08:46:33;;;;;;;26.50;12.00;;;;;;;-141.59;100.00;61776.25;4964554;28;20205;-82
2022/01/15 08:49:00;;;;;;;27.93;12.43;;;;;;;-141.59;100.00;61776.25;4962684;28;20209;-82
2022/01/15 08:51:27;;;;;;;23.10;10.67;;;;;;;-141.59;100.00;61776.25;4951521;28;20243;-82
2022/01/15 08:53:55;;;;;;;21.67;10.03;;;;;;;-141.59;100.00;61776.25;4950035;28;20281;-82
2022/01/15 08:56:22;;;;;;;27.47;9.63;;;;;;;-141.59;100.00;61776.25;4948557;28;20205;-82
2022/01/15 08:58:49;;;;;;;40.47;9.80;;;;;;;-141.59;100.00;61776.25;4961226;28;20205;-82
2022/01/15 09:01:16;;;;;;;28.83;12.07;;;;;;;-141.59;100.00;61776.25;4962182;28;20221;-81
2022/01/15 09:03:44;;;;;;;38.20;12.30;;;;;;;-141.59;100.00;61776.25;4964480;28;20208;-82
2022/01/15 09:06:12;;;;;;;27.13;12.63;;;;;;;-141.59;100.00;61776.25;4946846;28;20260;-82
2022/01/15 09:08:39;;;;;;;24.63;10.80;;;;;;;-141.59;100.00;61776.25;4948339;28;20228;-81
2022/01/15 09:11:08;;;;;;;50.13;13.57;;;;;;;-141.59;100.00;61776.25;4946805;28;20216;-82
2022/01/15 09:13:35;;;;;;;26.50;12.57;;;;;;;-141.59;100.00;61776.25;4949730;28;20228;-82
2022/01/15 09:16:02;;;;;;;37.67;12.07;;;;;;;-141.59;100.00;61776.25;4948942;28;20223;-82
2022/01/15 09:18:30;;;;;;;29.90;12.00;;;;;;;-141.59;100.00;61776.25;4963607;28;20572;-83
2022/01/15 09:20:57;;;;;;;72.03;12.10;;;;;;;-141.59;100.00;61776.25;4949008;28;20197;-82
2022/01/15 09:23:25;;;;;;;48.30;11.87;;;;;;;-141.59;100.00;61776.25;4949724;28;20215;-82
2022/01/15 09:25:53;;;;;;;72.70;13.33;;;;;;;-141.59;100.00;61776.25;4961484;28;20201;-82
2022/01/15 09:31:06;;;;;;;33.03;14.37;;;;;;;-141.59;100.00;61776.25;4950282;28;20217;-82
2022/01/15 09:33:33;;;;;;;63.07;13.63;;;;;;;-141.59;100.00;61776.25;4947933;28;20308;-82
2022/01/15 09:36:00;;;;;;;36.17;12.83;;;;;;;-141.59;100.00;61776.25;4947065;28;20248;-82
2022/01/15 09:38:27;;;;;;;34.30;13.93;;;;;;;-141.59;100.00;61776.25;4961379;28;20292;-81
2022/01/15 09:40:56;;;;;;;30.67;13.60;;;;;;;-141.59;100.00;61776.25;4950650;28;20205;-82
2022/01/15 09:43:25;;;;;;;30.20;12.93;;;;;;;-141.59;100.00;61776.25;4947555;28;20293;-82
2022/01/15 09:45:53;;;;;;;34.60;13.33;;;;;;;-141.59;100.00;61776.25;4961633;28;20201;-82
2022/01/15 09:48:21;;;;;;;31.57;12.07;;;;;;;-141.59;100.00;61776.25;4949281;28;20201;-81
2022/01/15 09:50:48;;;;;;;27.60;11.47;;;;;;;-141.59;100.00;61776.25;4953823;28;20217;-82
2022/01/15 09:53:17;;;;;;;38.90;11.33;;;;;;;-141.59;100.00;61776.25;4961858;28;20229;-82
2022/01/15 09:55:46;;;;;;;28.33;10.70;;;;;;;-141.59;100.00;61776.25;4946843;28;20205;-82
2022/01/15 09:58:13;;;;;;;31.93;10.77;;;;;;;-141.59;100.00;61776.25;4945527;28;20292;-81
2022/01/15 10:00:41;;;;;;;28.23;10.97;;;;;;;-141.59;100.00;61776.25;4950076;28;20252;-82
2022/01/15 10:03:09;;;;;;;25.63;11.47;;;;;;;-141.59;100.00;61776.25;4957483;28;20215;-81
2022/01/15 10:05:36;;;;;;;28.03;10.93;;;;;;;-141.59;100.00;61776.25;4946413;28;20251;-81
2022/01/15 10:08:06;;;;;;;25.47;10.93;;;;;;;-141.59;100.00;61776.25;4962259;28;20247;-82
2022/01/15 10:10:35;;;;;;;23.50;10.73;;;;;;;-141.59;100.00;61776.25;4966945;28;20216;-81
2022/01/15 10:13:13;;;;;;;25.60;11.27;;;;;;;-141.59;100.00;61776.25;4947670;28;20233;-81
2022/01/15 10:15:43;;;;;;;28.80;11.93;;;;;;;-141.59;100.00;61776.25;4945957;28;20304;-81
2022/01/15 10:18:22;;;;;;;25.37;11.97;;;;;;;-141.59;100.00;61776.25;4947228;28;20240;-81
2022/01/15 10:20:49;;;;;;;29.67;11.67;;;;;;;-141.59;100.00;61776.25;4946644;28;20216;-81
2022/01/15 10:23:18;;;;;;;25.13;11.47;;;;;;;-141.59;100.00;61776.25;4939589;28;20234;-83
2022/01/15 10:25:46;;;;;;;28.43;13.20;;;;;;;-141.59;100.00;61776.25;4952708;28;20209;-83
2022/01/15 10:28:13;;;;;;;26.17;12.23;;;;;;;-141.59;100.00;61776.25;4949137;28;20205;-81
2022/01/15 10:30:46;;;;;;;18.07;8.73;;;;;;;-141.59;100.00;61776.25;4947978;28;20226;-81
2022/01/15 10:33:14;;;;;;;18.03;8.90;;;;;;;-141.59;100.00;61776.25;4950494;28;20228;-82
2022/01/15 10:35:42;;;;;;;20.47;9.40;;;;;;;-141.59;100.00;61776.25;4944761;28;20320;-82
2022/01/15 10:38:11;;;;;;;22.67;11.17;;;;;;;-141.59;100.00;61776.25;4946106;28;20221;-83
2022/01/15 10:40:43;;;;;;;28.97;12.30;;;;;;;-141.59;100.00;61776.25;4946021;28;20212;-83
2022/01/15 10:43:12;;;;;;;26.20;12.33;;;;;;;-141.59;100.00;61776.25;4959631;28;20205;-81
2022/01/15 10:45:50;;;;;;;27.83;11.43;;;;;;;-141.59;100.00;61776.25;4952467;28;20209;-82
2022/01/15 10:48:22;;;;;;;28.43;12.13;;;;;;;-141.59;100.00;61776.25;4946798;28;20215;-82
2022/01/15 10:50:57;;;;;;;20.30;10.17;;;;;;;-141.59;100.00;61776.25;4944811;28;20212;-82
2022/01/15 10:53:34;;;;;;;20.73;11.03;;;;;;;-141.59;100.00;61776.25;4934438;28;20228;-82
2022/01/15 10:56:03;;;;;;;21.53;10.27;;;;;;;-141.59;100.00;61776.25;4954999;28;20219;-82
2022/01/15 10:58:30;;;;;;;22.57;10.30;;;;;;;-141.59;100.00;61776.25;4962445;28;20204;-82
2022/01/15 11:00:59;;;;;;;18.80;9.80;;;;;;;-141.59;100.00;61776.25;4959449;28;20217;-82
2022/01/15 11:03:37;;;;;;;21.17;9.43;;;;;;;-141.59;100.00;61776.25;4940619;28;20301;-82
2022/01/15 11:06:05;;;;;;;29.63;11.57;;;;;;;-141.59;100.00;61776.25;4960491;28;20235;-82
2022/01/15 11:08:36;;;;;;;22.07;9.73;;;;;;;-141.59;100.00;61776.25;4942313;28;20233;-81
2022/01/15 11:11:07;;;;;;;23.00;11.10;;;;;;;-141.59;100.00;61776.25;4960512;28;20205;-82